sensor_id;sensor_type;location;lat;lon;timestamp;P1;durP1;ratioP1;P2;durP2;ratioP2
39792;SDS011;26080;42.264;24.536;2023-06-19T00:00:01;3.60;;;2.13;;
39792;SDS011;26080;42.264;24.536;2023-06-19T00:02:28;2.85;;;1.92;;
39792;SDS011;26080;42.264;24.536;2023-06-19T00:04:53;4.05;;;2.10;;
39792;SDS011;26080;42.264;24.536;2023-06-19T00:07:19;4.13;;;2.10;;
39792;SDS011;26080;42.264;24.536;2023-06-19T00:09:47;5.55;;;2.95;;
39792;SDS011;26080;42.264;24.536;2023-06-19T00:12:12;3.08;;;1.92;;
39792;SDS011;26080;42.264;24.536;2023-06-19T00:14:37;4.93;;;2.88;;
39792;SDS011;26080;42.264;24.536;2023-06-19T00:17:03;3.63;;;2.15;;
39792;SDS011;26080;42.264;24.536;2023-06-19T00:19:28;2.63;;;1.65;;
39792;SDS011;26080;42.264;24.536;2023-06-19T00:21:54;3.97;;;2.55;;
39792;SDS011;26080;42.264;24.536;2023-06-19T00:24:22;4.35;;;2.17;;
39792;SDS011;26080;42.264;24.536;2023-06-19T00:26:48;4.05;;;2.42;;
39792;SDS011;26080;42.264;24.536;2023-06-19T00:29:13;3.83;;;1.75;;
39792;SDS011;26080;42.264;24.536;2023-06-19T00:31:39;4.28;;;2.40;;
39792;SDS011;26080;42.264;24.536;2023-06-19T00:34:04;4.10;;;2.33;;
39792;SDS011;26080;42.264;24.536;2023-06-19T00:36:30;4.30;;;2.28;;
39792;SDS011;26080;42.264;24.536;2023-06-19T00:38:55;4.40;;;2.35;;
39792;SDS011;26080;42.264;24.536;2023-06-19T00:41:21;3.95;;;2.38;;
39792;SDS011;26080;42.264;24.536;2023-06-19T00:43:49;3.90;;;2.38;;
39792;SDS011;26080;42.264;24.536;2023-06-19T00:46:14;4.53;;;2.78;;
39792;SDS011;26080;42.264;24.536;2023-06-19T00:48:40;2.95;;;2.00;;
39792;SDS011;26080;42.264;24.536;2023-06-19T00:51:05;3.75;;;1.90;;
39792;SDS011;26080;42.264;24.536;2023-06-19T00:53:31;4.45;;;2.70;;
39792;SDS011;26080;42.264;24.536;2023-06-19T00:55:58;3.45;;;2.03;;
39792;SDS011;26080;42.264;24.536;2023-06-19T00:58:24;3.47;;;2.17;;
39792;SDS011;26080;42.264;24.536;2023-06-19T01:00:50;2.88;;;1.90;;
39792;SDS011;26080;42.264;24.536;2023-06-19T01:03:15;2.95;;;2.30;;
39792;SDS011;26080;42.264;24.536;2023-06-19T01:05:41;4.93;;;2.97;;
39792;SDS011;26080;42.264;24.536;2023-06-19T01:10:52;3.22;;;1.95;;
39792;SDS011;26080;42.264;24.536;2023-06-19T01:16:09;4.20;;;2.75;;
39792;SDS011;26080;42.264;24.536;2023-06-19T01:18:36;3.92;;;2.20;;
39792;SDS011;26080;42.264;24.536;2023-06-19T01:21:12;4.88;;;2.10;;
39792;SDS011;26080;42.264;24.536;2023-06-19T01:23:41;3.20;;;2.08;;
39792;SDS011;26080;42.264;24.536;2023-06-19T01:26:07;4.65;;;2.65;;
39792;SDS011;26080;42.264;24.536;2023-06-19T01:28:36;3.08;;;2.03;;
39792;SDS011;26080;42.264;24.536;2023-06-19T01:31:24;4.15;;;2.22;;
39792;SDS011;26080;42.264;24.536;2023-06-19T01:33:55;3.05;;;2.17;;
39792;SDS011;26080;42.264;24.536;2023-06-19T01:36:21;4.97;;;2.15;;
39792;SDS011;26080;42.264;24.536;2023-06-19T01:38:49;3.35;;;2.33;;
39792;SDS011;26080;42.264;24.536;2023-06-19T01:41:16;5.50;;;2.63;;
39792;SDS011;26080;42.264;24.536;2023-06-19T01:43:44;4.95;;;2.30;;
39792;SDS011;26080;42.264;24.536;2023-06-19T01:46:10;3.85;;;2.60;;
39792;SDS011;26080;42.264;24.536;2023-06-19T01:48:37;2.53;;;1.70;;
39792;SDS011;26080;42.264;24.536;2023-06-19T01:51:03;4.07;;;2.80;;
39792;SDS011;26080;42.264;24.536;2023-06-19T01:53:32;3.63;;;1.70;;
39792;SDS011;26080;42.264;24.536;2023-06-19T01:56:00;3.30;;;2.17;;
39792;SDS011;26080;42.264;24.536;2023-06-19T01:58:26;6.45;;;1.98;;
39792;SDS011;26080;42.264;24.536;2023-06-19T02:00:52;4.03;;;2.25;;
39792;SDS011;26080;42.264;24.536;2023-06-19T02:03:17;2.75;;;1.80;;
39792;SDS011;26080;42.264;24.536;2023-06-19T02:05:43;13.93;;;2.38;;
39792;SDS011;26080;42.264;24.536;2023-06-19T02:08:08;3.33;;;2.05;;
39792;SDS011;26080;42.264;24.536;2023-06-19T02:10:34;3.65;;;1.67;;
39792;SDS011;26080;42.264;24.536;2023-06-19T02:12:59;3.00;;;1.75;;
39792;SDS011;26080;42.264;24.536;2023-06-19T02:15:25;2.78;;;1.77;;
39792;SDS011;26080;42.264;24.536;2023-06-19T02:17:51;3.80;;;2.10;;
39792;SDS011;26080;42.264;24.536;2023-06-19T02:20:20;4.22;;;2.28;;
39792;SDS011;26080;42.264;24.536;2023-06-19T02:22:46;3.78;;;2.28;;
39792;SDS011;26080;42.264;24.536;2023-06-19T02:25:11;2.88;;;1.88;;
39792;SDS011;26080;42.264;24.536;2023-06-19T02:27:37;3.22;;;2.53;;
39792;SDS011;26080;42.264;24.536;2023-06-19T02:30:02;3.42;;;1.70;;
39792;SDS011;26080;42.264;24.536;2023-06-19T02:32:28;2.97;;;1.83;;
39792;SDS011;26080;42.264;24.536;2023-06-19T02:34:54;3.63;;;1.75;;
39792;SDS011;26080;42.264;24.536;2023-06-19T02:37:19;3.42;;;2.58;;
39792;SDS011;26080;42.264;24.536;2023-06-19T02:39:44;2.05;;;1.67;;
39792;SDS011;26080;42.264;24.536;2023-06-19T02:42:10;3.65;;;2.65;;
39792;SDS011;26080;42.264;24.536;2023-06-19T02:44:36;3.90;;;2.53;;
39792;SDS011;26080;42.264;24.536;2023-06-19T02:47:01;3.45;;;1.80;;
39792;SDS011;26080;42.264;24.536;2023-06-19T02:49:26;2.38;;;1.75;;
39792;SDS011;26080;42.264;24.536;2023-06-19T02:51:52;3.42;;;2.10;;
39792;SDS011;26080;42.264;24.536;2023-06-19T02:54:17;3.08;;;1.83;;
39792;SDS011;26080;42.264;24.536;2023-06-19T02:56:42;6.57;;;3.50;;
39792;SDS011;26080;42.264;24.536;2023-06-19T02:59:08;2.92;;;1.58;;
39792;SDS011;26080;42.264;24.536;2023-06-19T03:01:33;6.22;;;2.47;;
39792;SDS011;26080;42.264;24.536;2023-06-19T03:03:59;2.70;;;1.83;;
39792;SDS011;26080;42.264;24.536;2023-06-19T03:06:25;5.50;;;2.47;;
39792;SDS011;26080;42.264;24.536;2023-06-19T03:08:51;4.25;;;2.55;;
39792;SDS011;26080;42.264;24.536;2023-06-19T03:11:16;2.35;;;1.55;;
39792;SDS011;26080;42.264;24.536;2023-06-19T03:13:49;3.53;;;1.95;;
39792;SDS011;26080;42.264;24.536;2023-06-19T03:16:16;2.67;;;1.58;;
39792;SDS011;26080;42.264;24.536;2023-06-19T03:18:42;3.55;;;1.92;;
39792;SDS011;26080;42.264;24.536;2023-06-19T03:21:10;4.20;;;2.50;;
39792;SDS011;26080;42.264;24.536;2023-06-19T03:23:35;5.38;;;1.52;;
39792;SDS011;26080;42.264;24.536;2023-06-19T03:26:01;4.55;;;2.40;;
39792;SDS011;26080;42.264;24.536;2023-06-19T03:28:27;2.60;;;1.50;;
39792;SDS011;26080;42.264;24.536;2023-06-19T03:30:52;3.05;;;1.77;;
39792;SDS011;26080;42.264;24.536;2023-06-19T03:33:18;4.18;;;2.15;;
39792;SDS011;26080;42.264;24.536;2023-06-19T03:35:44;10.25;;;1.35;;
39792;SDS011;26080;42.264;24.536;2023-06-19T03:38:09;3.88;;;2.30;;
39792;SDS011;26080;42.264;24.536;2023-06-19T03:40:35;5.38;;;2.17;;
39792;SDS011;26080;42.264;24.536;2023-06-19T03:43:00;5.18;;;3.03;;
39792;SDS011;26080;42.264;24.536;2023-06-19T03:45:25;12.85;;;2.25;;
39792;SDS011;26080;42.264;24.536;2023-06-19T03:47:51;3.28;;;1.90;;
39792;SDS011;26080;42.264;24.536;2023-06-19T03:50:16;2.78;;;1.65;;
39792;SDS011;26080;42.264;24.536;2023-06-19T03:52:42;3.22;;;1.85;;
39792;SDS011;26080;42.264;24.536;2023-06-19T03:55:07;5.20;;;1.50;;
39792;SDS011;26080;42.264;24.536;2023-06-19T03:57:33;3.08;;;1.38;;
39792;SDS011;26080;42.264;24.536;2023-06-19T03:59:58;7.45;;;2.50;;
39792;SDS011;26080;42.264;24.536;2023-06-19T04:02:23;8.40;;;2.67;;
39792;SDS011;26080;42.264;24.536;2023-06-19T04:04:49;3.83;;;1.05;;
39792;SDS011;26080;42.264;24.536;2023-06-19T04:07:14;4.28;;;1.73;;
39792;SDS011;26080;42.264;24.536;2023-06-19T04:09:40;6.72;;;1.60;;
39792;SDS011;26080;42.264;24.536;2023-06-19T04:12:05;2.05;;;1.30;;
39792;SDS011;26080;42.264;24.536;2023-06-19T04:14:31;2.78;;;1.38;;
39792;SDS011;26080;42.264;24.536;2023-06-19T04:16:56;2.83;;;1.30;;
39792;SDS011;26080;42.264;24.536;2023-06-19T04:19:22;1.77;;;1.55;;
39792;SDS011;26080;42.264;24.536;2023-06-19T04:21:47;2.17;;;1.10;;
39792;SDS011;26080;42.264;24.536;2023-06-19T04:24:13;2.28;;;1.45;;
39792;SDS011;26080;42.264;24.536;2023-06-19T04:26:38;1.63;;;1.20;;
39792;SDS011;26080;42.264;24.536;2023-06-19T04:29:03;1.23;;;1.00;;
39792;SDS011;26080;42.264;24.536;2023-06-19T04:31:31;2.13;;;1.05;;
39792;SDS011;26080;42.264;24.536;2023-06-19T04:33:57;2.05;;;1.48;;
39792;SDS011;26080;42.264;24.536;2023-06-19T04:36:22;2.40;;;1.10;;
39792;SDS011;26080;42.264;24.536;2023-06-19T04:38:48;3.72;;;1.70;;
39792;SDS011;26080;42.264;24.536;2023-06-19T04:41:16;1.48;;;1.10;;
39792;SDS011;26080;42.264;24.536;2023-06-19T04:43:42;1.30;;;1.00;;
39792;SDS011;26080;42.264;24.536;2023-06-19T04:46:07;1.88;;;1.10;;
39792;SDS011;26080;42.264;24.536;2023-06-19T04:48:33;2.15;;;1.10;;
39792;SDS011;26080;42.264;24.536;2023-06-19T04:51:01;2.55;;;1.30;;
39792;SDS011;26080;42.264;24.536;2023-06-19T04:53:26;4.05;;;1.33;;
39792;SDS011;26080;42.264;24.536;2023-06-19T04:55:52;1.80;;;1.35;;
39792;SDS011;26080;42.264;24.536;2023-06-19T04:58:20;2.53;;;1.35;;
39792;SDS011;26080;42.264;24.536;2023-06-19T05:00:46;1.85;;;1.10;;
39792;SDS011;26080;42.264;24.536;2023-06-19T05:03:16;1.33;;;0.90;;
39792;SDS011;26080;42.264;24.536;2023-06-19T05:05:43;2.80;;;1.10;;
39792;SDS011;26080;42.264;24.536;2023-06-19T05:08:08;1.85;;;1.30;;
39792;SDS011;26080;42.264;24.536;2023-06-19T05:10:34;2.33;;;1.48;;
39792;SDS011;26080;42.264;24.536;2023-06-19T05:12:59;1.02;;;0.93;;
39792;SDS011;26080;42.264;24.536;2023-06-19T05:15:25;2.70;;;1.52;;
39792;SDS011;26080;42.264;24.536;2023-06-19T05:17:51;3.53;;;1.30;;
39792;SDS011;26080;42.264;24.536;2023-06-19T05:20:17;1.92;;;1.30;;
39792;SDS011;26080;42.264;24.536;2023-06-19T05:22:42;1.17;;;0.90;;
39792;SDS011;26080;42.264;24.536;2023-06-19T05:25:08;2.90;;;1.00;;
39792;SDS011;26080;42.264;24.536;2023-06-19T05:27:34;1.50;;;1.20;;
39792;SDS011;26080;42.264;24.536;2023-06-19T05:29:59;1.17;;;1.02;;
39792;SDS011;26080;42.264;24.536;2023-06-19T05:32:25;2.53;;;1.20;;
39792;SDS011;26080;42.264;24.536;2023-06-19T05:34:50;1.38;;;1.13;;
39792;SDS011;26080;42.264;24.536;2023-06-19T05:37:16;2.13;;;1.30;;
39792;SDS011;26080;42.264;24.536;2023-06-19T05:39:41;2.38;;;1.33;;
39792;SDS011;26080;42.264;24.536;2023-06-19T05:42:07;3.72;;;1.20;;
39792;SDS011;26080;42.264;24.536;2023-06-19T05:44:32;2.67;;;1.10;;
39792;SDS011;26080;42.264;24.536;2023-06-19T05:46:58;3.28;;;1.30;;
39792;SDS011;26080;42.264;24.536;2023-06-19T05:49:23;3.50;;;1.38;;
39792;SDS011;26080;42.264;24.536;2023-06-19T05:51:48;1.30;;;0.80;;
39792;SDS011;26080;42.264;24.536;2023-06-19T05:54:14;1.52;;;1.23;;
39792;SDS011;26080;42.264;24.536;2023-06-19T05:56:39;3.15;;;1.27;;
39792;SDS011;26080;42.264;24.536;2023-06-19T05:59:05;2.67;;;1.42;;
39792;SDS011;26080;42.264;24.536;2023-06-19T06:01:30;2.17;;;1.38;;
39792;SDS011;26080;42.264;24.536;2023-06-19T06:03:56;1.80;;;1.00;;
39792;SDS011;26080;42.264;24.536;2023-06-19T06:06:22;7.63;;;1.30;;
39792;SDS011;26080;42.264;24.536;2023-06-19T06:08:48;1.55;;;1.00;;
39792;SDS011;26080;42.264;24.536;2023-06-19T06:11:14;2.00;;;1.02;;
39792;SDS011;26080;42.264;24.536;2023-06-19T06:13:39;1.83;;;1.23;;
39792;SDS011;26080;42.264;24.536;2023-06-19T06:16:05;2.03;;;1.30;;
39792;SDS011;26080;42.264;24.536;2023-06-19T06:18:30;2.10;;;1.35;;
39792;SDS011;26080;42.264;24.536;2023-06-19T06:20:56;2.75;;;1.55;;
39792;SDS011;26080;42.264;24.536;2023-06-19T06:23:24;3.80;;;1.52;;
39792;SDS011;26080;42.264;24.536;2023-06-19T06:25:49;2.08;;;1.15;;
39792;SDS011;26080;42.264;24.536;2023-06-19T06:28:15;7.28;;;1.95;;
39792;SDS011;26080;42.264;24.536;2023-06-19T06:30:40;1.80;;;1.05;;
39792;SDS011;26080;42.264;24.536;2023-06-19T06:33:05;3.35;;;1.75;;
39792;SDS011;26080;42.264;24.536;2023-06-19T06:35:31;2.10;;;1.45;;
39792;SDS011;26080;42.264;24.536;2023-06-19T06:37:56;1.50;;;1.00;;
39792;SDS011;26080;42.264;24.536;2023-06-19T06:40:22;1.50;;;0.90;;
39792;SDS011;26080;42.264;24.536;2023-06-19T06:42:47;2.15;;;1.23;;
39792;SDS011;26080;42.264;24.536;2023-06-19T06:45:14;6.38;;;1.27;;
39792;SDS011;26080;42.264;24.536;2023-06-19T06:47:39;2.20;;;1.25;;
39792;SDS011;26080;42.264;24.536;2023-06-19T06:50:05;2.05;;;1.10;;
39792;SDS011;26080;42.264;24.536;2023-06-19T06:52:32;3.53;;;1.10;;
39792;SDS011;26080;42.264;24.536;2023-06-19T06:54:57;2.17;;;1.27;;
39792;SDS011;26080;42.264;24.536;2023-06-19T06:57:23;1.80;;;1.20;;
39792;SDS011;26080;42.264;24.536;2023-06-19T06:59:48;1.70;;;1.20;;
39792;SDS011;26080;42.264;24.536;2023-06-19T07:02:13;2.55;;;1.58;;
39792;SDS011;26080;42.264;24.536;2023-06-19T07:04:39;2.22;;;1.50;;
39792;SDS011;26080;42.264;24.536;2023-06-19T07:07:04;1.70;;;1.30;;
39792;SDS011;26080;42.264;24.536;2023-06-19T07:09:31;1.48;;;0.88;;
39792;SDS011;26080;42.264;24.536;2023-06-19T07:11:57;1.75;;;0.88;;
39792;SDS011;26080;42.264;24.536;2023-06-19T07:14:22;2.25;;;1.25;;
39792;SDS011;26080;42.264;24.536;2023-06-19T07:16:48;4.00;;;1.73;;
39792;SDS011;26080;42.264;24.536;2023-06-19T07:19:14;1.98;;;1.23;;
39792;SDS011;26080;42.264;24.536;2023-06-19T07:21:40;3.03;;;1.30;;
39792;SDS011;26080;42.264;24.536;2023-06-19T07:24:06;2.47;;;1.63;;
39792;SDS011;26080;42.264;24.536;2023-06-19T07:26:31;1.77;;;1.23;;
39792;SDS011;26080;42.264;24.536;2023-06-19T07:28:57;1.17;;;0.95;;
39792;SDS011;26080;42.264;24.536;2023-06-19T07:31:22;1.38;;;0.90;;
39792;SDS011;26080;42.264;24.536;2023-06-19T07:33:48;2.72;;;1.60;;
39792;SDS011;26080;42.264;24.536;2023-06-19T07:36:13;4.03;;;1.77;;
39792;SDS011;26080;42.264;24.536;2023-06-19T07:38:41;1.10;;;0.70;;
39792;SDS011;26080;42.264;24.536;2023-06-19T07:41:07;1.23;;;1.10;;
39792;SDS011;26080;42.264;24.536;2023-06-19T07:43:34;3.60;;;1.73;;
39792;SDS011;26080;42.264;24.536;2023-06-19T07:46:00;1.33;;;0.82;;
39792;SDS011;26080;42.264;24.536;2023-06-19T07:48:25;1.27;;;1.02;;
39792;SDS011;26080;42.264;24.536;2023-06-19T07:50:50;1.80;;;1.10;;
39792;SDS011;26080;42.264;24.536;2023-06-19T07:53:16;2.85;;;1.58;;
39792;SDS011;26080;42.264;24.536;2023-06-19T07:55:41;1.48;;;1.00;;
39792;SDS011;26080;42.264;24.536;2023-06-19T07:58:07;1.70;;;1.20;;
39792;SDS011;26080;42.264;24.536;2023-06-19T08:00:32;2.70;;;1.30;;
39792;SDS011;26080;42.264;24.536;2023-06-19T08:02:58;3.17;;;1.10;;
39792;SDS011;26080;42.264;24.536;2023-06-19T08:05:23;6.40;;;1.80;;
39792;SDS011;26080;42.264;24.536;2023-06-19T08:07:49;2.10;;;1.40;;
39792;SDS011;26080;42.264;24.536;2023-06-19T08:10:14;1.75;;;1.10;;
39792;SDS011;26080;42.264;24.536;2023-06-19T08:12:43;2.25;;;1.25;;
39792;SDS011;26080;42.264;24.536;2023-06-19T08:15:09;3.05;;;1.40;;
39792;SDS011;26080;42.264;24.536;2023-06-19T08:17:35;1.45;;;1.17;;
39792;SDS011;26080;42.264;24.536;2023-06-19T08:20:01;1.77;;;1.23;;
39792;SDS011;26080;42.264;24.536;2023-06-19T08:22:30;1.90;;;1.27;;
39792;SDS011;26080;42.264;24.536;2023-06-19T08:24:55;2.08;;;1.27;;
39792;SDS011;26080;42.264;24.536;2023-06-19T08:27:21;3.38;;;1.42;;
39792;SDS011;26080;42.264;24.536;2023-06-19T08:29:46;3.00;;;1.27;;
39792;SDS011;26080;42.264;24.536;2023-06-19T08:32:12;2.53;;;1.60;;
39792;SDS011;26080;42.264;24.536;2023-06-19T08:34:37;2.13;;;1.02;;
39792;SDS011;26080;42.264;24.536;2023-06-19T08:37:03;2.97;;;1.25;;
39792;SDS011;26080;42.264;24.536;2023-06-19T08:39:29;1.45;;;1.00;;
39792;SDS011;26080;42.264;24.536;2023-06-19T08:41:55;1.92;;;1.40;;
39792;SDS011;26080;42.264;24.536;2023-06-19T08:44:21;1.90;;;1.40;;
39792;SDS011;26080;42.264;24.536;2023-06-19T08:46:52;2.25;;;1.33;;
39792;SDS011;26080;42.264;24.536;2023-06-19T08:49:18;1.38;;;1.17;;
39792;SDS011;26080;42.264;24.536;2023-06-19T08:51:43;1.10;;;0.82;;
39792;SDS011;26080;42.264;24.536;2023-06-19T08:54:09;13.57;;;2.08;;
39792;SDS011;26080;42.264;24.536;2023-06-19T08:56:34;3.53;;;1.75;;
39792;SDS011;26080;42.264;24.536;2023-06-19T08:59:15;1.85;;;1.20;;
39792;SDS011;26080;42.264;24.536;2023-06-19T09:01:48;2.13;;;1.17;;
39792;SDS011;26080;42.264;24.536;2023-06-19T09:04:18;1.77;;;1.52;;
39792;SDS011;26080;42.264;24.536;2023-06-19T09:09:15;2.85;;;1.27;;
39792;SDS011;26080;42.264;24.536;2023-06-19T09:11:41;4.03;;;1.38;;
39792;SDS011;26080;42.264;24.536;2023-06-19T09:14:10;1.55;;;1.05;;
39792;SDS011;26080;42.264;24.536;2023-06-19T09:16:36;2.90;;;1.55;;
39792;SDS011;26080;42.264;24.536;2023-06-19T09:19:05;1.98;;;1.33;;
39792;SDS011;26080;42.264;24.536;2023-06-19T09:21:31;2.53;;;1.58;;
39792;SDS011;26080;42.264;24.536;2023-06-19T09:24:06;11.18;;;1.33;;
39792;SDS011;26080;42.264;24.536;2023-06-19T09:26:33;1.80;;;1.20;;
39792;SDS011;26080;42.264;24.536;2023-06-19T09:29:09;1.85;;;1.10;;
39792;SDS011;26080;42.264;24.536;2023-06-19T09:31:38;2.55;;;1.63;;
39792;SDS011;26080;42.264;24.536;2023-06-19T09:34:06;1.83;;;1.30;;
39792;SDS011;26080;42.264;24.536;2023-06-19T09:36:33;1.58;;;1.20;;
39792;SDS011;26080;42.264;24.536;2023-06-19T09:39:00;2.30;;;1.40;;
39792;SDS011;26080;42.264;24.536;2023-06-19T09:41:28;1.50;;;0.95;;
39792;SDS011;26080;42.264;24.536;2023-06-19T09:43:54;2.45;;;1.33;;
39792;SDS011;26080;42.264;24.536;2023-06-19T09:46:29;2.78;;;1.40;;
39792;SDS011;26080;42.264;24.536;2023-06-19T09:48:58;7.32;;;1.48;;
39792;SDS011;26080;42.264;24.536;2023-06-19T09:51:33;2.92;;;1.58;;
39792;SDS011;26080;42.264;24.536;2023-06-19T09:54:02;2.90;;;1.70;;
39792;SDS011;26080;42.264;24.536;2023-06-19T09:56:31;1.58;;;1.10;;
39792;SDS011;26080;42.264;24.536;2023-06-19T09:58:59;2.22;;;1.20;;
39792;SDS011;26080;42.264;24.536;2023-06-19T10:01:26;2.05;;;0.88;;
39792;SDS011;26080;42.264;24.536;2023-06-19T10:04:06;5.90;;;1.02;;
39792;SDS011;26080;42.264;24.536;2023-06-19T10:06:33;1.10;;;1.00;;
39792;SDS011;26080;42.264;24.536;2023-06-19T10:09:08;4.65;;;1.15;;
39792;SDS011;26080;42.264;24.536;2023-06-19T10:11:47;1.83;;;1.15;;
39792;SDS011;26080;42.264;24.536;2023-06-19T10:14:16;2.70;;;1.65;;
39792;SDS011;26080;42.264;24.536;2023-06-19T10:16:43;3.33;;;1.75;;
39792;SDS011;26080;42.264;24.536;2023-06-19T10:19:21;1.50;;;1.35;;
39792;SDS011;26080;42.264;24.536;2023-06-19T10:21:47;2.30;;;1.05;;
39792;SDS011;26080;42.264;24.536;2023-06-19T10:24:18;1.42;;;1.15;;
39792;SDS011;26080;42.264;24.536;2023-06-19T10:26:55;1.38;;;1.05;;
39792;SDS011;26080;42.264;24.536;2023-06-19T10:29:23;2.17;;;1.20;;
39792;SDS011;26080;42.264;24.536;2023-06-19T10:31:49;2.22;;;1.48;;
39792;SDS011;26080;42.264;24.536;2023-06-19T10:34:15;3.33;;;1.17;;
39792;SDS011;26080;42.264;24.536;2023-06-19T10:36:40;1.10;;;0.90;;
39792;SDS011;26080;42.264;24.536;2023-06-19T10:39:06;2.47;;;1.08;;
39792;SDS011;26080;42.264;24.536;2023-06-19T10:41:32;2.17;;;1.20;;
39792;SDS011;26080;42.264;24.536;2023-06-19T10:46:28;1.65;;;0.90;;
39792;SDS011;26080;42.264;24.536;2023-06-19T10:48:55;1.65;;;1.08;;
39792;SDS011;26080;42.264;24.536;2023-06-19T10:51:25;1.27;;;1.05;;
39792;SDS011;26080;42.264;24.536;2023-06-19T10:53:53;1.83;;;1.10;;
39792;SDS011;26080;42.264;24.536;2023-06-19T10:56:20;2.75;;;1.23;;
39792;SDS011;26080;42.264;24.536;2023-06-19T10:58:46;0.93;;;0.80;;
39792;SDS011;26080;42.264;24.536;2023-06-19T11:01:11;2.03;;;1.23;;
39792;SDS011;26080;42.264;24.536;2023-06-19T11:03:46;1.17;;;1.00;;
39792;SDS011;26080;42.264;24.536;2023-06-19T11:06:12;7.85;;;1.33;;
39792;SDS011;26080;42.264;24.536;2023-06-19T11:08:50;5.65;;;1.40;;
39792;SDS011;26080;42.264;24.536;2023-06-19T11:11:16;1.88;;;1.15;;
39792;SDS011;26080;42.264;24.536;2023-06-19T11:13:42;1.58;;;0.98;;
39792;SDS011;26080;42.264;24.536;2023-06-19T11:16:08;2.13;;;1.05;;
39792;SDS011;26080;42.264;24.536;2023-06-19T11:18:36;1.52;;;1.25;;
39792;SDS011;26080;42.264;24.536;2023-06-19T11:21:05;2.30;;;1.50;;
39792;SDS011;26080;42.264;24.536;2023-06-19T11:23:30;1.30;;;0.90;;
39792;SDS011;26080;42.264;24.536;2023-06-19T11:26:05;1.80;;;1.02;;
39792;SDS011;26080;42.264;24.536;2023-06-19T11:28:31;3.80;;;1.08;;
39792;SDS011;26080;42.264;24.536;2023-06-19T11:31:01;1.02;;;0.75;;
39792;SDS011;26080;42.264;24.536;2023-06-19T11:33:30;0.80;;;0.73;;
39792;SDS011;26080;42.264;24.536;2023-06-19T11:36:00;1.60;;;0.68;;
39792;SDS011;26080;42.264;24.536;2023-06-19T11:38:28;2.05;;;1.00;;
39792;SDS011;26080;42.264;24.536;2023-06-19T11:40:54;0.68;;;0.68;;
39792;SDS011;26080;42.264;24.536;2023-06-19T11:43:24;1.25;;;0.95;;
39792;SDS011;26080;42.264;24.536;2023-06-19T11:45:50;2.17;;;1.10;;
39792;SDS011;26080;42.264;24.536;2023-06-19T11:48:27;2.08;;;1.30;;
39792;SDS011;26080;42.264;24.536;2023-06-19T11:50:53;0.98;;;0.82;;
39792;SDS011;26080;42.264;24.536;2023-06-19T11:53:28;2.45;;;0.77;;
39792;SDS011;26080;42.264;24.536;2023-06-19T11:56:03;1.00;;;0.80;;
39792;SDS011;26080;42.264;24.536;2023-06-19T11:58:29;1.20;;;0.95;;
39792;SDS011;26080;42.264;24.536;2023-06-19T12:00:58;0.95;;;0.88;;
39792;SDS011;26080;42.264;24.536;2023-06-19T12:03:29;1.15;;;0.82;;
39792;SDS011;26080;42.264;24.536;2023-06-19T12:05:58;1.60;;;1.10;;
39792;SDS011;26080;42.264;24.536;2023-06-19T12:08:23;2.33;;;1.58;;
39792;SDS011;26080;42.264;24.536;2023-06-19T12:10:48;2.17;;;1.23;;
39792;SDS011;26080;42.264;24.536;2023-06-19T12:13:14;1.85;;;1.23;;
39792;SDS011;26080;42.264;24.536;2023-06-19T12:15:39;1.25;;;0.95;;
39792;SDS011;26080;42.264;24.536;2023-06-19T12:18:05;1.55;;;1.15;;
39792;SDS011;26080;42.264;24.536;2023-06-19T12:20:32;0.90;;;0.70;;
39792;SDS011;26080;42.264;24.536;2023-06-19T12:22:57;2.15;;;1.10;;
39792;SDS011;26080;42.264;24.536;2023-06-19T12:25:22;2.22;;;1.05;;
39792;SDS011;26080;42.264;24.536;2023-06-19T12:27:48;2.15;;;1.27;;
39792;SDS011;26080;42.264;24.536;2023-06-19T12:30:16;0.70;;;0.70;;
39792;SDS011;26080;42.264;24.536;2023-06-19T12:32:41;1.90;;;1.10;;
39792;SDS011;26080;42.264;24.536;2023-06-19T12:35:07;1.80;;;0.95;;
39792;SDS011;26080;42.264;24.536;2023-06-19T12:37:33;1.63;;;0.90;;
39792;SDS011;26080;42.264;24.536;2023-06-19T12:39:58;1.85;;;1.15;;
39792;SDS011;26080;42.264;24.536;2023-06-19T12:42:24;2.40;;;1.38;;
39792;SDS011;26080;42.264;24.536;2023-06-19T12:44:49;2.47;;;1.38;;
39792;SDS011;26080;42.264;24.536;2023-06-19T12:47:15;1.70;;;1.35;;
39792;SDS011;26080;42.264;24.536;2023-06-19T12:49:42;1.33;;;0.95;;
39792;SDS011;26080;42.264;24.536;2023-06-19T12:52:08;1.80;;;1.35;;
39792;SDS011;26080;42.264;24.536;2023-06-19T12:54:33;3.47;;;1.63;;
39792;SDS011;26080;42.264;24.536;2023-06-19T12:56:59;3.50;;;1.55;;
39792;SDS011;26080;42.264;24.536;2023-06-19T12:59:24;2.05;;;1.27;;
39792;SDS011;26080;42.264;24.536;2023-06-19T13:01:50;6.90;;;1.98;;
39792;SDS011;26080;42.264;24.536;2023-06-19T13:04:15;1.48;;;1.30;;
39792;SDS011;26080;42.264;24.536;2023-06-19T13:06:41;2.20;;;1.23;;
39792;SDS011;26080;42.264;24.536;2023-06-19T13:09:07;1.40;;;1.20;;
39792;SDS011;26080;42.264;24.536;2023-06-19T13:11:33;1.95;;;1.10;;
39792;SDS011;26080;42.264;24.536;2023-06-19T13:14:01;1.95;;;1.10;;
39792;SDS011;26080;42.264;24.536;2023-06-19T13:16:26;2.53;;;1.38;;
39792;SDS011;26080;42.264;24.536;2023-06-19T13:18:52;4.13;;;1.65;;
39792;SDS011;26080;42.264;24.536;2023-06-19T13:21:17;2.08;;;1.13;;
39792;SDS011;26080;42.264;24.536;2023-06-19T13:23:43;2.47;;;1.50;;
39792;SDS011;26080;42.264;24.536;2023-06-19T13:26:09;2.88;;;1.48;;
39792;SDS011;26080;42.264;24.536;2023-06-19T13:28:35;2.70;;;1.60;;
39792;SDS011;26080;42.264;24.536;2023-06-19T13:31:01;1.42;;;1.20;;
39792;SDS011;26080;42.264;24.536;2023-06-19T13:33:26;2.25;;;1.17;;
39792;SDS011;26080;42.264;24.536;2023-06-19T13:35:52;1.50;;;1.00;;
39792;SDS011;26080;42.264;24.536;2023-06-19T13:38:17;1.92;;;1.05;;
39792;SDS011;26080;42.264;24.536;2023-06-19T13:40:43;5.22;;;0.80;;
39792;SDS011;26080;42.264;24.536;2023-06-19T13:43:09;1.17;;;1.08;;
39792;SDS011;26080;42.264;24.536;2023-06-19T13:45:34;1.95;;;1.15;;
39792;SDS011;26080;42.264;24.536;2023-06-19T13:48:00;2.40;;;1.38;;
39792;SDS011;26080;42.264;24.536;2023-06-19T13:50:26;1.40;;;1.05;;
39792;SDS011;26080;42.264;24.536;2023-06-19T13:52:53;1.90;;;1.20;;
39792;SDS011;26080;42.264;24.536;2023-06-19T13:55:19;1.92;;;1.33;;
39792;SDS011;26080;42.264;24.536;2023-06-19T13:57:45;4.50;;;1.08;;
39792;SDS011;26080;42.264;24.536;2023-06-19T14:00:11;1.15;;;0.90;;
39792;SDS011;26080;42.264;24.536;2023-06-19T14:02:37;1.30;;;0.95;;
39792;SDS011;26080;42.264;24.536;2023-06-19T14:05:04;1.38;;;1.08;;
39792;SDS011;26080;42.264;24.536;2023-06-19T14:07:31;1.80;;;1.20;;
39792;SDS011;26080;42.264;24.536;2023-06-19T14:09:57;3.15;;;1.65;;
39792;SDS011;26080;42.264;24.536;2023-06-19T14:12:22;1.90;;;1.30;;
39792;SDS011;26080;42.264;24.536;2023-06-19T14:14:47;2.35;;;1.38;;
39792;SDS011;26080;42.264;24.536;2023-06-19T14:17:13;1.85;;;1.20;;
39792;SDS011;26080;42.264;24.536;2023-06-19T14:19:39;1.58;;;1.10;;
39792;SDS011;26080;42.264;24.536;2023-06-19T14:22:05;2.50;;;1.17;;
39792;SDS011;26080;42.264;24.536;2023-06-19T14:24:31;1.88;;;1.08;;
39792;SDS011;26080;42.264;24.536;2023-06-19T14:26:56;1.77;;;1.30;;
39792;SDS011;26080;42.264;24.536;2023-06-19T14:29:21;1.45;;;1.15;;
39792;SDS011;26080;42.264;24.536;2023-06-19T14:31:47;1.08;;;0.80;;
39792;SDS011;26080;42.264;24.536;2023-06-19T14:34:12;1.63;;;1.15;;
39792;SDS011;26080;42.264;24.536;2023-06-19T14:36:38;1.58;;;1.05;;
39792;SDS011;26080;42.264;24.536;2023-06-19T14:39:04;1.63;;;0.98;;